createdAt,value
2023-03-24T00:00:20.327Z,431.00
2023-03-24T00:01:20.339Z,430.00
2023-03-24T00:02:20.348Z,426.00
2023-03-24T00:04:20.378Z,425.00
2023-03-24T00:05:20.333Z,422.00
2023-03-24T00:06:20.354Z,424.00
2023-03-24T00:07:21.079Z,424.00
2023-03-24T00:08:20.361Z,422.00
2023-03-24T00:09:20.371Z,424.00
2023-03-24T00:10:20.402Z,423.00
2023-03-24T00:11:20.377Z,421.00
2023-03-24T00:12:20.385Z,421.00
2023-03-24T00:13:20.383Z,416.00
2023-03-24T00:14:20.389Z,417.00
2023-03-24T00:15:20.401Z,419.00
2023-03-24T00:16:20.484Z,415.00
2023-03-24T00:17:20.408Z,411.00
2023-03-24T00:18:20.418Z,411.00
2023-03-24T00:19:20.419Z,412.00
2023-03-24T00:20:20.595Z,416.00
2023-03-24T00:21:20.440Z,420.00
2023-03-24T00:22:20.440Z,418.00
2023-03-24T00:24:20.460Z,418.00
2023-03-24T00:25:20.478Z,419.00
2023-03-24T00:26:20.479Z,419.00
2023-03-24T00:27:20.481Z,416.00
2023-03-24T00:28:20.507Z,415.00
2023-03-24T00:31:20.597Z,411.00
2023-03-24T00:32:20.553Z,409.00
2023-03-24T00:33:20.561Z,408.00
2023-03-24T00:34:20.590Z,407.00
2023-03-24T00:35:20.607Z,408.00
2023-03-24T00:36:20.659Z,408.00
2023-03-24T00:37:20.630Z,407.00
2023-03-24T00:38:20.648Z,407.00
2023-03-24T00:39:20.645Z,403.00
2023-03-24T00:40:20.663Z,405.00
2023-03-24T00:41:20.717Z,405.00
2023-03-24T00:42:20.682Z,407.00
2023-03-24T00:43:20.712Z,409.00
2023-03-24T00:44:20.708Z,409.00
2023-03-24T00:47:20.728Z,406.00
2023-03-24T00:48:20.732Z,407.00
2023-03-24T00:49:20.741Z,407.00
2023-03-24T00:50:20.904Z,407.00
2023-03-24T00:51:20.770Z,407.00
2023-03-24T00:52:20.943Z,408.00
2023-03-24T00:53:20.797Z,408.00
2023-03-24T00:54:20.827Z,407.00
2023-03-24T00:56:20.847Z,405.00
2023-03-24T00:59:20.856Z,405.00
2023-03-24T01:00:20.874Z,407.00
2023-03-24T01:01:20.914Z,407.00
2023-03-24T01:02:20.916Z,404.00
2023-03-24T01:03:20.938Z,404.00
2023-03-24T01:04:20.934Z,404.00
2023-03-24T01:05:20.948Z,404.00
2023-03-24T01:06:20.951Z,404.00
2023-03-24T01:07:20.964Z,406.00
2023-03-24T01:08:20.961Z,407.00
2023-03-24T01:09:20.974Z,409.00
2023-03-24T01:10:20.983Z,410.00
2023-03-24T01:12:21.029Z,411.00
2023-03-24T01:15:21.045Z,411.00
2023-03-24T01:16:21.122Z,409.00
2023-03-24T01:18:21.083Z,408.00
2023-03-24T01:19:21.105Z,408.00
2023-03-24T01:20:21.131Z,408.00
2023-03-24T01:22:21.121Z,407.00
2023-03-24T01:23:21.129Z,407.00
2023-03-24T01:24:21.144Z,404.00
2023-03-24T01:25:21.161Z,403.00
2023-03-24T01:26:21.168Z,403.00
2023-03-24T01:27:21.189Z,404.00
2023-03-24T01:28:21.182Z,403.00
2023-03-24T01:29:21.197Z,403.00
2023-03-24T01:30:21.234Z,403.00
2023-03-24T01:31:21.234Z,404.00
2023-03-24T01:32:21.273Z,403.00
2023-03-24T01:33:21.248Z,408.00
2023-03-24T01:34:21.263Z,410.00
2023-03-24T01:35:21.282Z,410.00
2023-03-24T01:36:21.269Z,411.00
2023-03-24T01:37:21.284Z,408.00
2023-03-24T01:38:21.294Z,407.00
2023-03-24T01:39:21.312Z,405.00
2023-03-24T01:41:21.316Z,402.00
2023-03-24T01:42:21.438Z,401.00
2023-03-24T01:43:21.344Z,404.00
2023-03-24T01:44:21.391Z,405.00
2023-03-24T01:45:21.479Z,407.00
2023-03-24T01:46:21.680Z,407.00
2023-03-24T01:47:21.461Z,406.00
2023-03-24T01:49:21.425Z,405.00
2023-03-24T01:53:22.344Z,402.00
2023-03-24T01:54:22.360Z,402.00
2023-03-24T01:56:21.553Z,404.00
2023-03-24T01:57:21.582Z,404.00
2023-03-24T01:58:21.479Z,403.00
2023-03-24T01:59:21.523Z,403.00
2023-03-24T02:03:21.548Z,393.00
2023-03-24T02:04:21.646Z,396.00
2023-03-24T02:05:21.517Z,398.00
2023-03-24T02:06:21.536Z,399.00
2023-03-24T02:07:21.558Z,398.00
2023-03-24T02:08:21.568Z,398.00
2023-03-24T02:09:21.569Z,400.00
2023-03-24T02:10:21.583Z,399.00
2023-03-24T02:11:21.605Z,400.00
2023-03-24T02:12:21.612Z,398.00
2023-03-24T02:13:21.616Z,402.00
2023-03-24T02:14:21.676Z,400.00
2023-03-24T02:18:21.785Z,398.00
2023-03-24T02:19:23.591Z,397.00
2023-03-24T02:20:21.799Z,398.00
2023-03-24T02:21:21.746Z,398.00
2023-03-24T02:22:21.808Z,397.00
2023-03-24T02:23:22.350Z,396.00
2023-03-24T02:24:22.352Z,395.00
2023-03-24T02:25:21.872Z,397.00
2023-03-24T02:31:21.952Z,397.00
2023-03-24T02:32:21.906Z,400.00
2023-03-24T02:33:21.864Z,402.00
2023-03-24T02:34:21.891Z,402.00
2023-03-24T02:35:21.845Z,399.00
2023-03-24T02:36:21.886Z,396.00
2023-03-24T02:37:21.910Z,396.00
2023-03-24T02:38:21.878Z,397.00
2023-03-24T02:39:21.884Z,397.00
2023-03-24T02:40:21.883Z,396.00
2023-03-24T02:41:21.907Z,393.00
2023-03-24T02:42:21.915Z,395.00
2023-03-24T02:43:21.915Z,394.00
2023-03-24T02:44:21.925Z,395.00
2023-03-24T02:45:21.959Z,396.00
2023-03-24T02:46:21.990Z,396.00
2023-03-24T02:48:21.984Z,396.00
2023-03-24T02:49:21.991Z,392.00
2023-03-24T02:50:22.019Z,394.00
2023-03-24T02:51:22.028Z,392.00
2023-03-24T02:52:22.038Z,393.00
2023-03-24T02:53:22.054Z,393.00
2023-03-24T02:54:22.066Z,393.00
2023-03-24T02:55:22.075Z,395.00
2023-03-24T02:56:22.097Z,395.00
2023-03-24T02:57:22.104Z,396.00
2023-03-24T02:58:22.127Z,400.00
2023-03-24T02:59:22.152Z,400.00
2023-03-24T03:00:22.144Z,398.00
2023-03-24T03:01:22.204Z,397.00
2023-03-24T03:02:22.215Z,397.00
2023-03-24T03:06:22.244Z,395.00
2023-03-24T03:07:22.262Z,396.00
2023-03-24T03:08:22.288Z,398.00
2023-03-24T03:09:22.297Z,398.00
2023-03-24T03:10:22.313Z,399.00
2023-03-24T03:11:22.341Z,401.00
2023-03-24T03:12:22.375Z,402.00
2023-03-24T03:13:22.372Z,399.00
2023-03-24T03:14:22.369Z,400.00
2023-03-24T03:15:22.404Z,398.00
2023-03-24T03:16:22.499Z,399.00
2023-03-24T03:17:22.406Z,398.00
2023-03-24T03:18:22.420Z,398.00
2023-03-24T03:19:22.440Z,398.00
2023-03-24T03:20:22.449Z,400.00
2023-03-24T03:21:22.473Z,397.00
2023-03-24T03:22:22.508Z,401.00
2023-03-24T03:23:22.514Z,402.00
2023-03-24T03:26:22.566Z,399.00
2023-03-24T03:27:22.563Z,398.00
2023-03-24T03:28:22.592Z,398.00
2023-03-24T03:29:22.623Z,396.00
2023-03-24T03:31:22.643Z,391.00
2023-03-24T03:32:22.642Z,390.00
2023-03-24T03:33:22.645Z,390.00
2023-03-24T03:34:22.676Z,388.00
2023-03-24T03:37:22.722Z,390.00
2023-03-24T03:38:22.743Z,390.00
2023-03-24T03:39:22.756Z,392.00
2023-03-24T03:40:22.766Z,394.00
2023-03-24T03:41:22.770Z,395.00
2023-03-24T03:42:22.795Z,395.00
2023-03-24T03:43:22.813Z,396.00
2023-03-24T03:44:22.825Z,396.00
2023-03-24T03:45:22.842Z,396.00
2023-03-24T03:46:22.862Z,399.00
2023-03-24T03:47:23.033Z,396.00
2023-03-24T03:48:22.906Z,395.00
2023-03-24T03:49:22.931Z,397.00
2023-03-24T03:50:22.913Z,396.00
2023-03-24T03:51:22.916Z,395.00
2023-03-24T03:52:22.956Z,392.00
2023-03-24T03:53:23.434Z,392.00
2023-03-24T03:59:23.048Z,393.00
2023-03-24T04:00:25.534Z,394.00
2023-03-24T04:01:23.073Z,394.00
2023-03-24T04:02:23.126Z,394.00
2023-03-24T04:03:23.208Z,393.00
2023-03-24T04:04:23.103Z,392.00
2023-03-24T04:06:23.127Z,395.00
2023-03-24T04:07:23.177Z,397.00
2023-03-24T04:11:23.196Z,396.00
2023-03-24T04:12:23.224Z,395.00
2023-03-24T04:13:23.217Z,395.00
2023-03-24T04:14:23.254Z,395.00
2023-03-24T04:15:23.232Z,392.00
2023-03-24T04:16:23.368Z,390.00
2023-03-24T04:17:23.307Z,390.00
2023-03-24T04:18:23.265Z,392.00
2023-03-24T04:19:23.297Z,394.00
2023-03-24T04:20:23.290Z,390.00
2023-03-24T04:21:23.306Z,389.00
2023-03-24T04:22:23.328Z,387.00
2023-03-24T04:24:23.353Z,388.00
2023-03-24T04:25:23.336Z,386.00
2023-03-24T04:26:23.352Z,384.00
2023-03-24T04:27:23.370Z,387.00
2023-03-24T04:28:23.372Z,387.00
2023-03-24T04:29:23.401Z,386.00
2023-03-24T04:30:23.469Z,385.00
2023-03-24T04:31:23.494Z,385.00
2023-03-24T04:32:23.416Z,385.00
2023-03-24T04:33:23.424Z,384.00
2023-03-24T04:34:23.435Z,386.00
2023-03-24T04:35:23.452Z,387.00
2023-03-24T04:36:23.478Z,388.00
2023-03-24T04:37:23.450Z,388.00
2023-03-24T04:38:23.464Z,390.00
2023-03-24T04:42:23.510Z,391.00
2023-03-24T04:43:23.514Z,389.00
2023-03-24T04:44:23.541Z,388.00
2023-03-24T04:45:23.566Z,387.00
2023-03-24T04:46:23.586Z,384.00
2023-03-24T04:47:23.574Z,383.00
2023-03-24T04:48:23.574Z,381.00
2023-03-24T04:49:23.612Z,383.00
2023-03-24T04:50:23.610Z,386.00
2023-03-24T04:51:23.635Z,385.00
2023-03-24T04:52:23.646Z,385.00
2023-03-24T04:54:23.657Z,374.00
2023-03-24T04:55:23.670Z,374.00
2023-03-24T04:56:23.683Z,378.00
2023-03-24T04:57:23.685Z,378.00
2023-03-24T04:58:23.691Z,380.00
2023-03-24T04:59:23.715Z,380.00
2023-03-24T05:00:23.713Z,380.00
2023-03-24T05:01:23.786Z,380.00
2023-03-24T05:02:23.738Z,383.00
2023-03-24T05:03:23.741Z,383.00
2023-03-24T05:04:23.755Z,381.00
2023-03-24T05:05:23.765Z,382.00
2023-03-24T05:06:23.791Z,381.00
2023-03-24T05:07:23.800Z,379.00
2023-03-24T05:08:23.807Z,378.00
2023-03-24T05:09:23.837Z,378.00
2023-03-24T05:10:23.842Z,377.00
2023-03-24T05:11:23.866Z,377.00
2023-03-24T05:12:23.866Z,379.00
2023-03-24T05:13:23.881Z,379.00
2023-03-24T05:14:23.906Z,379.00
2023-03-24T05:15:23.917Z,379.00
2023-03-24T05:16:23.959Z,380.00
2023-03-24T05:17:23.943Z,381.00
2023-03-24T05:18:23.954Z,380.00
2023-03-24T05:19:23.983Z,379.00
2023-03-24T05:20:23.978Z,377.00
2023-03-24T05:21:23.996Z,375.00
2023-03-24T05:22:24.001Z,376.00
2023-03-24T05:23:24.017Z,377.00
2023-03-24T05:24:24.038Z,377.00
2023-03-24T05:25:24.060Z,375.00
2023-03-24T05:26:24.074Z,373.00
2023-03-24T05:27:24.091Z,374.00
2023-03-24T05:28:24.116Z,373.00
2023-03-24T05:29:24.132Z,372.00
2023-03-24T05:30:24.178Z,371.00
2023-03-24T05:31:24.159Z,371.00
2023-03-24T05:32:24.206Z,372.00
2023-03-24T05:33:24.191Z,373.00
2023-03-24T05:34:24.205Z,373.00
2023-03-24T05:35:24.223Z,372.00
2023-03-24T05:37:24.255Z,369.00
2023-03-24T05:38:24.281Z,371.00
2023-03-24T05:39:24.295Z,372.00
2023-03-24T05:40:24.328Z,373.00
2023-03-24T05:42:24.335Z,372.00
2023-03-24T05:44:24.369Z,370.00
2023-03-24T05:45:24.390Z,369.00
2023-03-24T05:46:26.402Z,369.00
2023-03-24T05:47:24.408Z,369.00
2023-03-24T05:48:24.425Z,368.00
2023-03-24T05:49:24.464Z,367.00
2023-03-24T05:50:24.460Z,368.00
2023-03-24T05:51:24.476Z,368.00
2023-03-24T05:52:25.229Z,367.00
2023-03-24T05:53:24.507Z,368.00
2023-03-24T05:54:24.507Z,373.00
2023-03-24T05:55:24.546Z,372.00
2023-03-24T05:56:24.526Z,372.00
2023-03-24T05:57:24.543Z,374.00
2023-03-24T05:58:24.566Z,372.00
2023-03-24T06:01:24.599Z,370.00
2023-03-24T06:02:24.776Z,370.00
2023-03-24T06:03:24.695Z,375.00
2023-03-24T06:04:24.633Z,376.00
2023-03-24T06:05:24.661Z,376.00
2023-03-24T06:06:24.662Z,375.00
2023-03-24T06:07:24.663Z,375.00
2023-03-24T06:08:24.689Z,376.00
2023-03-24T06:09:24.688Z,374.00
2023-03-24T06:10:24.724Z,373.00
2023-03-24T06:13:24.741Z,372.00
2023-03-24T06:14:25.455Z,373.00
2023-03-24T06:15:24.817Z,374.00
2023-03-24T06:16:24.804Z,372.00
2023-03-24T06:17:24.870Z,373.00
2023-03-24T06:18:24.812Z,373.00
2023-03-24T06:19:24.836Z,372.00
2023-03-24T06:20:24.842Z,371.00
2023-03-24T06:21:24.842Z,372.00
2023-03-24T06:22:24.856Z,371.00
2023-03-24T06:23:24.855Z,369.00
2023-03-24T06:24:24.856Z,370.00
2023-03-24T06:25:24.871Z,372.00
2023-03-24T06:26:24.884Z,374.00
2023-03-24T06:27:24.968Z,373.00
2023-03-24T06:29:24.937Z,374.00
2023-03-24T06:30:24.953Z,371.00
2023-03-24T06:31:25.010Z,369.00
2023-03-24T06:35:25.024Z,521.00
2023-03-24T06:36:24.980Z,555.00
2023-03-24T06:37:24.999Z,561.00
2023-03-24T06:38:24.996Z,601.00
2023-03-24T06:39:25.007Z,634.00
2023-03-24T06:40:25.035Z,642.00
2023-03-24T06:43:25.113Z,649.00
2023-03-24T06:45:25.045Z,700.00
2023-03-24T06:46:25.109Z,723.00
2023-03-24T06:50:25.086Z,801.00
2023-03-24T06:51:25.113Z,818.00
2023-03-24T06:54:25.270Z,896.00
2023-03-24T06:55:25.062Z,907.00
2023-03-24T06:58:25.069Z,947.00
2023-03-24T06:59:25.113Z,983.00
2023-03-24T07:00:25.072Z,1007.00
2023-03-24T07:01:25.123Z,1013.00
2023-03-24T07:02:25.137Z,1037.00
2023-03-24T07:04:25.100Z,1058.00
2023-03-24T07:05:25.971Z,1103.00
2023-03-24T07:06:25.061Z,1100.00
2023-03-24T07:09:25.085Z,1139.00
2023-03-24T07:10:25.090Z,1149.00
2023-03-24T07:12:25.130Z,1179.00
2023-03-24T07:13:25.058Z,1202.00
2023-03-24T07:14:25.024Z,1217.00
2023-03-24T07:15:25.023Z,1232.00
2023-03-24T07:17:25.361Z,1242.00
2023-03-24T07:18:24.999Z,1245.00
2023-03-24T07:19:25.010Z,1253.00
2023-03-24T07:20:24.970Z,1260.00
2023-03-24T07:21:24.997Z,1259.00
2023-03-24T07:23:24.971Z,1253.00
2023-03-24T07:26:24.942Z,1211.00
2023-03-24T07:27:24.980Z,1163.00
2023-03-24T07:28:24.917Z,1159.00
2023-03-24T07:30:37.176Z,1149.00
2023-03-24T07:31:25.982Z,1082.00
2023-03-24T07:33:24.963Z,1079.00
2023-03-24T07:34:24.895Z,1063.00
2023-03-24T07:36:24.952Z,1047.00
2023-03-24T07:37:24.902Z,1033.00
2023-03-24T07:38:24.898Z,1021.00
2023-03-24T07:39:24.892Z,1021.00
2023-03-24T07:44:24.882Z,843.00
2023-03-24T07:46:24.911Z,729.00
2023-03-24T07:47:25.738Z,721.00
2023-03-24T07:48:24.876Z,721.00
2023-03-24T07:49:24.886Z,716.00
2023-03-24T07:50:24.885Z,714.00
2023-03-24T07:52:24.855Z,711.00
2023-03-24T07:53:24.904Z,708.00
2023-03-24T07:56:24.865Z,709.00
2023-03-24T07:57:24.866Z,711.00
2023-03-24T07:58:24.869Z,711.00
2023-03-24T07:59:26.753Z,709.00
2023-03-24T08:03:24.903Z,705.00
2023-03-24T08:04:24.838Z,706.00
2023-03-24T08:05:24.847Z,711.00
2023-03-24T08:06:24.827Z,714.00
2023-03-24T08:07:24.799Z,710.00
2023-03-24T08:08:24.828Z,704.00
2023-03-24T08:10:24.784Z,706.00
2023-03-24T08:11:24.816Z,706.00
2023-03-24T08:13:24.736Z,698.00
2023-03-24T08:16:24.762Z,691.00
2023-03-24T08:17:24.759Z,695.00
2023-03-24T08:18:24.744Z,694.00
2023-03-24T08:19:24.718Z,689.00
2023-03-24T08:20:24.736Z,685.00
2023-03-24T08:23:24.682Z,676.00
2023-03-24T08:25:24.686Z,674.00
2023-03-24T08:26:24.683Z,670.00
2023-03-24T08:27:24.689Z,672.00
2023-03-24T08:28:24.671Z,670.00
2023-03-24T08:29:24.658Z,669.00
2023-03-24T08:30:24.747Z,670.00
2023-03-24T08:31:24.731Z,664.00
2023-03-24T08:32:24.699Z,668.00
2023-03-24T08:37:24.679Z,685.00
2023-03-24T08:38:24.933Z,816.00
2023-03-24T08:39:24.832Z,731.00
2023-03-24T08:40:24.660Z,730.00
2023-03-24T08:45:24.689Z,744.00
2023-03-24T08:46:24.710Z,709.00
2023-03-24T08:47:24.720Z,718.00
2023-03-24T08:48:24.706Z,694.00
2023-03-24T08:49:24.710Z,681.00
2023-03-24T08:50:24.707Z,715.00
2023-03-24T08:51:24.743Z,684.00
2023-03-24T08:52:25.018Z,721.00
2023-03-24T08:53:25.497Z,689.00
2023-03-24T08:57:24.856Z,698.00
2023-03-24T08:58:24.834Z,689.00
2023-03-24T08:59:24.842Z,692.00
2023-03-24T09:00:24.934Z,686.00
2023-03-24T09:01:24.903Z,683.00
2023-03-24T09:02:24.899Z,678.00
2023-03-24T09:04:24.940Z,681.00
2023-03-24T09:05:37.133Z,693.00
2023-03-24T09:06:25.991Z,924.00
2023-03-24T09:07:25.268Z,753.00
2023-03-24T09:08:24.961Z,716.00
2023-03-24T09:09:25.075Z,683.00
2023-03-24T09:10:25.057Z,666.00
2023-03-24T09:11:25.128Z,672.00
2023-03-24T09:12:25.150Z,674.00
2023-03-24T09:13:25.282Z,680.00
2023-03-24T09:14:25.097Z,662.00
2023-03-24T09:15:25.092Z,672.00
2023-03-24T09:16:25.092Z,662.00
2023-03-24T09:17:25.101Z,693.00
2023-03-24T09:20:25.094Z,719.00
2023-03-24T09:21:25.110Z,699.00
2023-03-24T09:22:25.182Z,688.00
2023-03-24T09:23:25.145Z,682.00
2023-03-24T09:24:25.149Z,680.00
2023-03-24T09:25:25.218Z,698.00
2023-03-24T09:26:25.178Z,685.00
2023-03-24T09:28:25.199Z,904.00
2023-03-24T09:34:25.208Z,1016.00
2023-03-24T09:35:25.209Z,991.00
2023-03-24T09:37:25.237Z,939.00
2023-03-24T09:38:25.267Z,942.00
2023-03-24T09:40:25.237Z,918.00
2023-03-24T09:41:25.207Z,903.00
2023-03-24T09:42:25.235Z,899.00
2023-03-24T09:45:25.190Z,877.00
2023-03-24T09:46:25.255Z,869.00
2023-03-24T09:47:25.243Z,857.00
2023-03-24T09:48:25.268Z,850.00
2023-03-24T09:49:25.221Z,850.00
2023-03-24T09:50:25.230Z,876.00
2023-03-24T09:54:25.246Z,1096.00
2023-03-24T09:56:25.250Z,1105.00
2023-03-24T09:57:25.326Z,1118.00
2023-03-24T09:59:25.201Z,1150.00
2023-03-24T10:00:25.197Z,1163.00
2023-03-24T10:01:25.583Z,1194.00
2023-03-24T10:04:25.210Z,1213.00
2023-03-24T10:08:25.118Z,1255.00
2023-03-24T10:09:25.098Z,1266.00
2023-03-24T10:11:25.045Z,1301.00
2023-03-24T10:12:25.132Z,1313.00
2023-03-24T10:13:25.531Z,1337.00
2023-03-24T10:14:24.995Z,1347.00
2023-03-24T10:18:25.007Z,1412.00
2023-03-24T10:20:24.918Z,1445.00
2023-03-24T10:21:25.015Z,1461.00
2023-03-24T10:23:24.854Z,1496.00
2023-03-24T10:25:24.803Z,1522.00
2023-03-24T10:26:24.783Z,1530.00
2023-03-24T10:30:24.735Z,1573.00
2023-03-24T10:31:24.815Z,1594.00
2023-03-24T10:32:25.698Z,1611.00
2023-03-24T10:33:24.707Z,1618.00
2023-03-24T10:34:24.716Z,1615.00
2023-03-24T10:35:25.559Z,1617.00
2023-03-24T10:37:24.726Z,1638.00
2023-03-24T10:38:24.584Z,1659.00
2023-03-24T10:39:34.319Z,1694.00
2023-03-24T10:40:25.733Z,1686.00
2023-03-24T10:41:25.525Z,1694.00
2023-03-24T10:42:24.523Z,1747.00
2023-03-24T10:44:24.480Z,1772.00
2023-03-24T10:49:24.339Z,1716.00
2023-03-24T10:50:24.357Z,1696.00
2023-03-24T10:51:24.303Z,1683.00
2023-03-24T10:52:24.338Z,1691.00
2023-03-24T10:54:24.257Z,1702.00
2023-03-24T10:56:24.212Z,1713.00
2023-03-24T11:00:24.104Z,1759.00
2023-03-24T11:01:24.156Z,1763.00
2023-03-24T11:02:24.105Z,1781.00
2023-03-24T11:04:24.049Z,1795.00
2023-03-24T11:06:23.972Z,1825.00
2023-03-24T11:09:23.886Z,1848.00
2023-03-24T11:10:23.886Z,1849.00
2023-03-24T11:11:23.842Z,1851.00
2023-03-24T11:12:23.866Z,1851.00
2023-03-24T11:17:23.785Z,1907.00
2023-03-24T11:18:23.704Z,1912.00
2023-03-24T11:19:23.795Z,1927.00
2023-03-24T11:20:23.643Z,1946.00
2023-03-24T11:21:23.591Z,1946.00
2023-03-24T11:24:23.552Z,1940.00
2023-03-24T11:28:23.479Z,1943.00
2023-03-24T11:29:23.400Z,1935.00
2023-03-24T11:30:23.367Z,1936.00
2023-03-24T11:33:36.129Z,1942.00
2023-03-24T11:34:24.299Z,1951.00
2023-03-24T11:36:23.321Z,2010.00
2023-03-24T11:40:23.115Z,2086.00
2023-03-24T11:41:23.111Z,2066.00
2023-03-24T11:42:23.068Z,1967.00
2023-03-24T11:43:23.046Z,1908.00
2023-03-24T11:44:23.096Z,1805.00
2023-03-24T11:48:22.907Z,1610.00
2023-03-24T11:49:22.885Z,1569.00
2023-03-24T11:50:22.874Z,1545.00
2023-03-24T11:51:22.837Z,1536.00
2023-03-24T11:52:22.826Z,1529.00
2023-03-24T11:54:22.764Z,1391.00
2023-03-24T11:56:22.743Z,1375.00
2023-03-24T11:59:22.678Z,1259.00
2023-03-24T12:00:22.736Z,1190.00
2023-03-24T12:01:22.719Z,1197.00
2023-03-24T12:02:22.723Z,1201.00
2023-03-24T12:03:22.629Z,1161.00
2023-03-24T12:05:22.692Z,1133.00
2023-03-24T12:06:22.641Z,1123.00
2023-03-24T12:11:22.460Z,1056.00
2023-03-24T12:12:22.435Z,1049.00
2023-03-24T12:13:32.852Z,1033.00
2023-03-24T12:14:23.582Z,972.00
2023-03-24T12:15:28.861Z,972.00
2023-03-24T12:16:23.610Z,981.00
2023-03-24T12:17:22.497Z,967.00
2023-03-24T12:22:22.431Z,983.00
2023-03-24T12:24:22.446Z,991.00
2023-03-24T12:25:22.373Z,987.00
2023-03-24T12:26:22.368Z,981.00
2023-03-24T12:27:22.344Z,984.00
2023-03-24T12:31:22.291Z,1022.00
2023-03-24T12:32:22.299Z,1029.00
2023-03-24T12:33:22.271Z,1059.00
2023-03-24T12:34:22.211Z,1066.00
2023-03-24T12:36:22.178Z,1047.00
2023-03-24T12:37:22.185Z,1044.00
2023-03-24T12:38:22.153Z,1041.00
2023-03-24T12:41:24.873Z,1010.00
2023-03-24T12:43:22.065Z,1000.00
2023-03-24T12:44:22.028Z,987.00
2023-03-24T12:45:22.037Z,1004.00
2023-03-24T12:46:22.084Z,1000.00
2023-03-24T12:49:21.979Z,944.00
2023-03-24T12:51:22.102Z,940.00
2023-03-24T12:52:21.862Z,936.00
2023-03-24T12:53:21.840Z,938.00
2023-03-24T12:54:21.858Z,942.00
2023-03-24T12:55:21.833Z,939.00
2023-03-24T13:01:21.715Z,936.00
2023-03-24T13:02:21.662Z,943.00
2023-03-24T13:03:21.662Z,939.00
2023-03-24T13:04:21.646Z,934.00
2023-03-24T13:08:21.549Z,917.00
2023-03-24T13:11:32.397Z,918.00
2023-03-24T13:12:22.517Z,920.00
2023-03-24T13:13:21.498Z,916.00
2023-03-24T13:15:21.425Z,917.00
2023-03-24T13:16:21.477Z,915.00
2023-03-24T13:20:21.363Z,907.00
2023-03-24T13:21:21.356Z,906.00
2023-03-24T13:22:21.314Z,909.00
2023-03-24T13:25:21.284Z,910.00
2023-03-24T13:26:21.279Z,904.00
2023-03-24T13:28:21.208Z,896.00
2023-03-24T13:29:21.205Z,894.00
2023-03-24T13:31:21.201Z,882.00
2023-03-24T13:35:21.100Z,871.00
2023-03-24T13:36:21.133Z,867.00
2023-03-24T13:37:21.071Z,868.00
2023-03-24T13:39:21.022Z,872.00
2023-03-24T13:40:21.022Z,873.00
2023-03-24T13:42:20.979Z,869.00
2023-03-24T13:43:20.978Z,864.00
2023-03-24T13:45:20.932Z,860.00
2023-03-24T13:47:20.900Z,861.00
2023-03-24T13:48:20.921Z,859.00
2023-03-24T13:51:20.821Z,846.00
2023-03-24T13:52:20.836Z,840.00
2023-03-24T13:54:20.780Z,842.00
2023-03-24T13:55:20.767Z,837.00
2023-03-24T13:57:20.740Z,840.00
2023-03-24T13:58:20.705Z,838.00
2023-03-24T13:59:21.646Z,838.00
2023-03-24T14:03:20.833Z,828.00
2023-03-24T14:04:20.593Z,825.00
2023-03-24T14:06:20.539Z,824.00
2023-03-24T14:07:20.566Z,823.00
2023-03-24T14:08:20.496Z,820.00
2023-03-24T14:11:20.471Z,806.00
2023-03-24T14:13:20.409Z,801.00
2023-03-24T14:14:20.398Z,801.00
2023-03-24T14:15:20.397Z,801.00
2023-03-24T14:17:20.334Z,800.00
2023-03-24T14:18:20.328Z,802.00
2023-03-24T14:23:20.265Z,793.00
2023-03-24T14:25:20.247Z,790.00
2023-03-24T14:26:20.149Z,787.00
2023-03-24T14:27:20.130Z,784.00
2023-03-24T14:29:20.085Z,779.00
2023-03-24T14:30:20.081Z,781.00
2023-03-24T14:34:19.994Z,776.00
2023-03-24T14:35:19.990Z,777.00
2023-03-24T14:38:19.924Z,773.00
2023-03-24T14:39:19.892Z,775.00
2023-03-24T14:41:19.864Z,772.00
2023-03-24T14:44:19.830Z,766.00
2023-03-24T14:45:19.809Z,769.00
2023-03-24T14:46:19.840Z,762.00
2023-03-24T14:47:19.751Z,761.00
2023-03-24T14:50:19.699Z,758.00
2023-03-24T14:52:19.654Z,753.00
2023-03-24T14:54:19.638Z,754.00
2023-03-24T14:55:19.663Z,749.00
2023-03-24T15:00:19.495Z,740.00
2023-03-24T15:02:19.434Z,734.00
2023-03-24T15:03:19.481Z,734.00
2023-03-24T15:05:21.922Z,732.00
2023-03-24T15:06:19.344Z,728.00
2023-03-24T15:10:19.284Z,728.00
2023-03-24T15:12:19.230Z,724.00
2023-03-24T15:13:19.220Z,723.00
2023-03-24T15:14:19.210Z,725.00
2023-03-24T15:16:19.206Z,721.00
2023-03-24T15:17:19.167Z,716.00
2023-03-24T15:22:19.089Z,717.00
2023-03-24T15:23:19.064Z,715.00
2023-03-24T15:24:19.029Z,715.00
2023-03-24T15:27:19.061Z,710.00
2023-03-24T15:29:18.941Z,695.00
2023-03-24T15:32:18.882Z,698.00
2023-03-24T15:33:18.884Z,697.00
2023-03-24T15:35:18.833Z,692.00
2023-03-24T15:36:18.806Z,692.00
2023-03-24T15:37:18.784Z,689.00
2023-03-24T15:40:18.716Z,691.00
2023-03-24T15:43:18.768Z,689.00
2023-03-24T15:45:18.648Z,687.00
2023-03-24T15:48:18.619Z,680.00
2023-03-24T15:52:18.570Z,674.00
2023-03-24T15:53:18.695Z,673.00
2023-03-24T15:54:18.541Z,673.00
2023-03-24T15:56:18.540Z,674.00
2023-03-24T15:57:18.521Z,673.00
2023-03-24T15:59:18.497Z,673.00
2023-03-24T16:03:18.482Z,668.00
2023-03-24T16:04:18.483Z,662.00
2023-03-24T16:05:18.417Z,657.00
2023-03-24T16:06:18.417Z,658.00
2023-03-24T16:09:18.446Z,665.00
2023-03-24T16:10:18.392Z,666.00
2023-03-24T16:11:18.387Z,664.00
2023-03-24T16:13:18.371Z,660.00
2023-03-24T16:14:18.368Z,659.00
2023-03-24T16:16:18.369Z,659.00
2023-03-24T16:18:18.332Z,660.00
2023-03-24T16:20:18.303Z,661.00
2023-03-24T16:21:18.293Z,661.00
2023-03-24T16:22:18.262Z,657.00
2023-03-24T16:24:18.261Z,655.00
2023-03-24T16:26:18.227Z,653.00
2023-03-24T16:27:18.215Z,653.00
2023-03-24T16:28:18.216Z,649.00
2023-03-24T16:29:18.215Z,652.00
2023-03-24T16:35:18.230Z,648.00
2023-03-24T16:37:18.148Z,651.00
2023-03-24T16:38:18.132Z,645.00
2023-03-24T16:40:18.120Z,645.00
2023-03-24T16:41:18.099Z,642.00
2023-03-24T16:42:18.107Z,638.00
2023-03-24T16:45:18.092Z,631.00
2023-03-24T16:46:18.146Z,629.00
2023-03-24T16:47:18.094Z,625.00
2023-03-24T16:48:18.065Z,623.00
2023-03-24T16:51:18.051Z,621.00
2023-03-24T16:52:19.328Z,621.00
2023-03-24T16:53:18.080Z,623.00
2023-03-24T16:54:18.046Z,621.00
2023-03-24T16:56:18.031Z,621.00
2023-03-24T16:58:18.013Z,617.00
2023-03-24T16:59:17.996Z,617.00
2023-03-24T17:00:18.011Z,619.00
2023-03-24T17:01:18.010Z,618.00
2023-03-24T17:04:17.979Z,620.00
2023-03-24T17:05:17.953Z,615.00
2023-03-24T17:06:17.946Z,612.00
2023-03-24T17:08:17.956Z,612.00
2023-03-24T17:10:17.910Z,612.00
2023-03-24T17:11:17.880Z,614.00
2023-03-24T17:15:17.866Z,608.00
2023-03-24T17:16:17.900Z,609.00
2023-03-24T17:18:17.839Z,608.00
2023-03-24T17:19:17.845Z,608.00
2023-03-24T17:20:17.845Z,609.00
2023-03-24T17:22:17.818Z,609.00
2023-03-24T17:23:17.826Z,605.00
2023-03-24T17:25:17.808Z,601.00
2023-03-24T17:28:17.799Z,604.00
2023-03-24T17:29:17.798Z,603.00
2023-03-24T17:30:17.786Z,600.00
2023-03-24T17:31:17.799Z,601.00
2023-03-24T17:32:18.887Z,601.00
2023-03-24T17:34:21.646Z,600.00
2023-03-24T17:35:17.831Z,598.00
2023-03-24T17:36:17.764Z,600.00
2023-03-24T17:39:17.749Z,597.00
2023-03-24T17:40:17.745Z,601.00
2023-03-24T17:41:17.759Z,601.00
2023-03-24T17:42:17.732Z,600.00
2023-03-24T17:45:17.719Z,593.00
2023-03-24T17:46:17.871Z,592.00
2023-03-24T17:47:17.737Z,590.00
2023-03-24T17:51:17.772Z,591.00
2023-03-24T17:52:17.709Z,592.00
2023-03-24T17:53:17.685Z,591.00
2023-03-24T17:54:17.713Z,590.00
2023-03-24T17:56:17.682Z,586.00
2023-03-24T17:57:17.700Z,589.00
2023-03-24T17:58:17.724Z,588.00
2023-03-24T17:59:17.693Z,584.00
2023-03-24T18:00:17.693Z,581.00
2023-03-24T18:01:17.759Z,582.00
2023-03-24T18:02:17.704Z,581.00